sensor_id;sensor_type;location;lat;lon;timestamp;P1;durP1;ratioP1;P2;durP2;ratioP2
57635;SDS011;43465;50.728;4.160;2022-08-30T00:01:03;11.52;;;4.38;;
57635;SDS011;43465;50.728;4.160;2022-08-30T00:03:35;6.95;;;4.32;;
57635;SDS011;43465;50.728;4.160;2022-08-30T00:06:10;7.13;;;4.65;;
57635;SDS011;43465;50.728;4.160;2022-08-30T00:08:38;8.63;;;4.22;;
57635;SDS011;43465;50.728;4.160;2022-08-30T00:11:06;7.55;;;4.63;;
57635;SDS011;43465;50.728;4.160;2022-08-30T00:13:37;7.68;;;4.68;;
57635;SDS011;43465;50.728;4.160;2022-08-30T00:16:06;8.05;;;4.72;;
57635;SDS011;43465;50.728;4.160;2022-08-30T00:18:33;8.73;;;4.50;;
57635;SDS011;43465;50.728;4.160;2022-08-30T00:20:59;6.63;;;4.60;;
57635;SDS011;43465;50.728;4.160;2022-08-30T00:23:26;10.05;;;4.43;;
57635;SDS011;43465;50.728;4.160;2022-08-30T00:25:51;7.95;;;4.18;;
57635;SDS011;43465;50.728;4.160;2022-08-30T00:28:17;7.43;;;4.43;;
57635;SDS011;43465;50.728;4.160;2022-08-30T00:30:43;6.20;;;4.53;;
57635;SDS011;43465;50.728;4.160;2022-08-30T00:33:10;8.73;;;4.72;;
57635;SDS011;43465;50.728;4.160;2022-08-30T00:35:36;6.85;;;4.35;;
57635;SDS011;43465;50.728;4.160;2022-08-30T00:38:04;10.32;;;4.35;;
57635;SDS011;43465;50.728;4.160;2022-08-30T00:40:33;9.23;;;4.78;;
57635;SDS011;43465;50.728;4.160;2022-08-30T00:43:01;10.00;;;4.57;;
57635;SDS011;43465;50.728;4.160;2022-08-30T00:45:30;14.82;;;5.75;;
57635;SDS011;43465;50.728;4.160;2022-08-30T00:47:58;8.23;;;4.88;;
57635;SDS011;43465;50.728;4.160;2022-08-30T00:50:27;9.32;;;5.03;;
57635;SDS011;43465;50.728;4.160;2022-08-30T00:52:57;9.07;;;5.07;;
57635;SDS011;43465;50.728;4.160;2022-08-30T00:55:25;12.07;;;5.50;;
57635;SDS011;43465;50.728;4.160;2022-08-30T00:57:55;8.88;;;4.90;;
57635;SDS011;43465;50.728;4.160;2022-08-30T01:00:26;8.98;;;5.65;;
57635;SDS011;43465;50.728;4.160;2022-08-30T01:02:52;10.35;;;5.43;;
57635;SDS011;43465;50.728;4.160;2022-08-30T01:05:18;9.75;;;5.22;;
57635;SDS011;43465;50.728;4.160;2022-08-30T01:07:45;13.13;;;5.85;;
57635;SDS011;43465;50.728;4.160;2022-08-30T01:10:11;11.13;;;5.68;;
57635;SDS011;43465;50.728;4.160;2022-08-30T01:12:38;13.90;;;6.07;;
57635;SDS011;43465;50.728;4.160;2022-08-30T01:15:05;10.65;;;5.32;;
57635;SDS011;43465;50.728;4.160;2022-08-30T01:17:32;10.88;;;6.00;;
57635;SDS011;43465;50.728;4.160;2022-08-30T01:19:59;8.90;;;5.10;;
57635;SDS011;43465;50.728;4.160;2022-08-30T01:25:03;17.90;;;6.15;;
57635;SDS011;43465;50.728;4.160;2022-08-30T01:27:32;9.45;;;6.28;;
57635;SDS011;43465;50.728;4.160;2022-08-30T01:30:01;11.93;;;6.22;;
57635;SDS011;43465;50.728;4.160;2022-08-30T01:32:28;9.23;;;5.68;;
57635;SDS011;43465;50.728;4.160;2022-08-30T01:34:54;10.75;;;5.60;;
57635;SDS011;43465;50.728;4.160;2022-08-30T01:37:22;10.50;;;6.00;;
57635;SDS011;43465;50.728;4.160;2022-08-30T01:39:51;10.05;;;6.05;;
57635;SDS011;43465;50.728;4.160;2022-08-30T01:42:17;10.27;;;5.60;;
57635;SDS011;43465;50.728;4.160;2022-08-30T01:44:44;10.15;;;5.47;;
57635;SDS011;43465;50.728;4.160;2022-08-30T01:47:10;8.45;;;5.10;;
57635;SDS011;43465;50.728;4.160;2022-08-30T01:49:37;8.43;;;5.50;;
57635;SDS011;43465;50.728;4.160;2022-08-30T01:52:04;9.82;;;6.10;;
57635;SDS011;43465;50.728;4.160;2022-08-30T01:54:31;11.27;;;5.75;;
57635;SDS011;43465;50.728;4.160;2022-08-30T01:56:58;13.05;;;6.10;;
57635;SDS011;43465;50.728;4.160;2022-08-30T01:59:24;8.50;;;6.32;;
57635;SDS011;43465;50.728;4.160;2022-08-30T02:01:50;9.93;;;6.20;;
57635;SDS011;43465;50.728;4.160;2022-08-30T02:04:16;12.15;;;6.22;;
57635;SDS011;43465;50.728;4.160;2022-08-30T02:06:42;14.48;;;5.63;;
57635;SDS011;43465;50.728;4.160;2022-08-30T02:09:08;13.10;;;7.03;;
57635;SDS011;43465;50.728;4.160;2022-08-30T02:11:35;11.82;;;6.45;;
57635;SDS011;43465;50.728;4.160;2022-08-30T02:14:00;13.98;;;6.72;;
57635;SDS011;43465;50.728;4.160;2022-08-30T02:16:27;12.82;;;7.10;;
57635;SDS011;43465;50.728;4.160;2022-08-30T02:18:53;10.43;;;6.93;;
57635;SDS011;43465;50.728;4.160;2022-08-30T02:21:21;12.20;;;7.70;;
57635;SDS011;43465;50.728;4.160;2022-08-30T02:23:47;17.23;;;7.68;;
57635;SDS011;43465;50.728;4.160;2022-08-30T02:26:13;12.95;;;6.90;;
57635;SDS011;43465;50.728;4.160;2022-08-30T02:28:39;13.07;;;8.27;;
57635;SDS011;43465;50.728;4.160;2022-08-30T02:31:05;10.93;;;7.72;;
57635;SDS011;43465;50.728;4.160;2022-08-30T02:33:31;13.93;;;7.57;;
57635;SDS011;43465;50.728;4.160;2022-08-30T02:35:56;12.73;;;7.53;;
57635;SDS011;43465;50.728;4.160;2022-08-30T02:38:22;11.35;;;7.50;;
57635;SDS011;43465;50.728;4.160;2022-08-30T02:40:48;13.60;;;7.78;;
57635;SDS011;43465;50.728;4.160;2022-08-30T02:43:15;14.55;;;8.13;;
57635;SDS011;43465;50.728;4.160;2022-08-30T02:45:42;13.27;;;8.00;;
57635;SDS011;43465;50.728;4.160;2022-08-30T02:48:08;13.15;;;8.07;;
57635;SDS011;43465;50.728;4.160;2022-08-30T02:50:37;15.52;;;8.27;;
57635;SDS011;43465;50.728;4.160;2022-08-30T02:53:04;15.25;;;8.10;;
57635;SDS011;43465;50.728;4.160;2022-08-30T02:55:30;14.20;;;8.18;;
57635;SDS011;43465;50.728;4.160;2022-08-30T02:57:55;11.95;;;8.35;;
57635;SDS011;43465;50.728;4.160;2022-08-30T03:00:21;14.60;;;8.27;;
57635;SDS011;43465;50.728;4.160;2022-08-30T03:02:47;14.60;;;8.07;;
57635;SDS011;43465;50.728;4.160;2022-08-30T03:05:14;13.30;;;7.63;;
57635;SDS011;43465;50.728;4.160;2022-08-30T03:07:41;13.63;;;8.00;;
57635;SDS011;43465;50.728;4.160;2022-08-30T03:10:07;15.70;;;8.52;;
57635;SDS011;43465;50.728;4.160;2022-08-30T03:12:33;15.00;;;8.38;;
57635;SDS011;43465;50.728;4.160;2022-08-30T03:14:59;15.60;;;8.50;;
57635;SDS011;43465;50.728;4.160;2022-08-30T03:17:25;13.30;;;7.82;;
57635;SDS011;43465;50.728;4.160;2022-08-30T03:19:51;15.05;;;7.97;;
57635;SDS011;43465;50.728;4.160;2022-08-30T03:22:17;14.68;;;8.85;;
57635;SDS011;43465;50.728;4.160;2022-08-30T03:24:42;12.82;;;8.07;;
57635;SDS011;43465;50.728;4.160;2022-08-30T03:27:10;11.48;;;8.20;;
57635;SDS011;43465;50.728;4.160;2022-08-30T03:29:36;12.43;;;8.98;;
57635;SDS011;43465;50.728;4.160;2022-08-30T03:32:03;15.15;;;8.70;;
57635;SDS011;43465;50.728;4.160;2022-08-30T03:34:29;13.80;;;8.80;;
57635;SDS011;43465;50.728;4.160;2022-08-30T03:36:55;11.55;;;8.60;;
57635;SDS011;43465;50.728;4.160;2022-08-30T03:39:22;17.50;;;9.40;;
57635;SDS011;43465;50.728;4.160;2022-08-30T03:41:49;15.45;;;8.85;;
57635;SDS011;43465;50.728;4.160;2022-08-30T03:44:15;16.80;;;8.80;;
57635;SDS011;43465;50.728;4.160;2022-08-30T03:46:41;13.93;;;9.05;;
57635;SDS011;43465;50.728;4.160;2022-08-30T03:49:07;14.05;;;8.70;;
57635;SDS011;43465;50.728;4.160;2022-08-30T03:51:33;14.63;;;8.55;;
57635;SDS011;43465;50.728;4.160;2022-08-30T03:54:00;15.40;;;9.18;;
57635;SDS011;43465;50.728;4.160;2022-08-30T03:56:26;13.57;;;8.00;;
57635;SDS011;43465;50.728;4.160;2022-08-30T03:58:52;11.88;;;8.52;;
57635;SDS011;43465;50.728;4.160;2022-08-30T04:01:18;13.82;;;8.70;;
57635;SDS011;43465;50.728;4.160;2022-08-30T04:03:43;15.05;;;8.82;;
57635;SDS011;43465;50.728;4.160;2022-08-30T04:06:09;16.10;;;8.88;;
57635;SDS011;43465;50.728;4.160;2022-08-30T04:08:35;13.63;;;8.55;;
57635;SDS011;43465;50.728;4.160;2022-08-30T04:11:02;14.02;;;9.45;;
57635;SDS011;43465;50.728;4.160;2022-08-30T04:13:28;15.77;;;9.43;;
57635;SDS011;43465;50.728;4.160;2022-08-30T04:15:54;16.13;;;8.90;;
57635;SDS011;43465;50.728;4.160;2022-08-30T04:18:20;18.08;;;9.18;;
57635;SDS011;43465;50.728;4.160;2022-08-30T04:20:46;14.52;;;9.27;;
57635;SDS011;43465;50.728;4.160;2022-08-30T04:23:12;13.18;;;8.82;;
57635;SDS011;43465;50.728;4.160;2022-08-30T04:25:39;14.88;;;9.10;;
57635;SDS011;43465;50.728;4.160;2022-08-30T04:28:05;13.20;;;9.48;;
57635;SDS011;43465;50.728;4.160;2022-08-30T04:30:31;18.73;;;9.52;;
57635;SDS011;43465;50.728;4.160;2022-08-30T04:32:57;14.93;;;10.30;;
57635;SDS011;43465;50.728;4.160;2022-08-30T04:35:23;14.55;;;9.70;;
57635;SDS011;43465;50.728;4.160;2022-08-30T04:37:49;15.00;;;9.18;;
57635;SDS011;43465;50.728;4.160;2022-08-30T04:40:15;12.13;;;9.40;;
57635;SDS011;43465;50.728;4.160;2022-08-30T04:42:41;14.05;;;8.82;;
57635;SDS011;43465;50.728;4.160;2022-08-30T04:45:09;16.95;;;10.35;;
57635;SDS011;43465;50.728;4.160;2022-08-30T04:47:37;16.88;;;9.90;;
57635;SDS011;43465;50.728;4.160;2022-08-30T04:50:03;15.90;;;10.00;;
57635;SDS011;43465;50.728;4.160;2022-08-30T04:52:30;19.58;;;10.43;;
57635;SDS011;43465;50.728;4.160;2022-08-30T04:54:56;18.27;;;9.77;;
57635;SDS011;43465;50.728;4.160;2022-08-30T04:57:23;18.58;;;10.80;;
57635;SDS011;43465;50.728;4.160;2022-08-30T04:59:50;14.50;;;10.18;;
57635;SDS011;43465;50.728;4.160;2022-08-30T05:02:16;16.45;;;10.30;;
57635;SDS011;43465;50.728;4.160;2022-08-30T05:04:42;16.17;;;11.00;;
57635;SDS011;43465;50.728;4.160;2022-08-30T05:07:28;16.45;;;10.13;;
57635;SDS011;43465;50.728;4.160;2022-08-30T05:09:54;13.85;;;9.90;;
57635;SDS011;43465;50.728;4.160;2022-08-30T05:12:20;21.30;;;10.23;;
57635;SDS011;43465;50.728;4.160;2022-08-30T05:14:45;17.55;;;11.27;;
57635;SDS011;43465;50.728;4.160;2022-08-30T05:17:11;17.27;;;11.35;;
57635;SDS011;43465;50.728;4.160;2022-08-30T05:19:36;13.18;;;10.25;;
57635;SDS011;43465;50.728;4.160;2022-08-30T05:22:02;13.68;;;10.05;;
57635;SDS011;43465;50.728;4.160;2022-08-30T05:24:28;18.10;;;11.38;;
57635;SDS011;43465;50.728;4.160;2022-08-30T05:26:56;15.77;;;10.85;;
57635;SDS011;43465;50.728;4.160;2022-08-30T05:29:22;14.32;;;10.32;;
57635;SDS011;43465;50.728;4.160;2022-08-30T05:31:48;18.27;;;10.38;;
57635;SDS011;43465;50.728;4.160;2022-08-30T05:34:13;19.35;;;10.65;;
57635;SDS011;43465;50.728;4.160;2022-08-30T05:36:39;12.77;;;9.95;;
57635;SDS011;43465;50.728;4.160;2022-08-30T05:39:05;19.02;;;11.23;;
57635;SDS011;43465;50.728;4.160;2022-08-30T05:41:32;14.63;;;10.57;;
57635;SDS011;43465;50.728;4.160;2022-08-30T05:43:58;14.80;;;10.25;;
57635;SDS011;43465;50.728;4.160;2022-08-30T05:46:26;14.52;;;10.65;;
57635;SDS011;43465;50.728;4.160;2022-08-30T05:48:57;14.55;;;10.55;;
57635;SDS011;43465;50.728;4.160;2022-08-30T05:51:25;15.05;;;11.07;;
57635;SDS011;43465;50.728;4.160;2022-08-30T05:53:55;18.42;;;10.80;;
57635;SDS011;43465;50.728;4.160;2022-08-30T05:56:24;14.55;;;10.13;;
57635;SDS011;43465;50.728;4.160;2022-08-30T05:58:55;20.08;;;11.48;;
57635;SDS011;43465;50.728;4.160;2022-08-30T06:01:28;18.55;;;11.00;;
57635;SDS011;43465;50.728;4.160;2022-08-30T06:03:56;14.73;;;10.85;;
57635;SDS011;43465;50.728;4.160;2022-08-30T06:06:24;16.65;;;10.40;;
57635;SDS011;43465;50.728;4.160;2022-08-30T06:08:51;14.20;;;10.43;;
57635;SDS011;43465;50.728;4.160;2022-08-30T06:11:18;20.25;;;11.70;;
57635;SDS011;43465;50.728;4.160;2022-08-30T06:13:45;16.05;;;11.05;;
57635;SDS011;43465;50.728;4.160;2022-08-30T06:16:12;14.75;;;11.18;;
57635;SDS011;43465;50.728;4.160;2022-08-30T06:18:41;16.23;;;11.13;;
57635;SDS011;43465;50.728;4.160;2022-08-30T06:21:07;18.23;;;11.45;;
57635;SDS011;43465;50.728;4.160;2022-08-30T06:23:32;22.30;;;11.25;;
57635;SDS011;43465;50.728;4.160;2022-08-30T06:26:04;16.52;;;12.02;;
57635;SDS011;43465;50.728;4.160;2022-08-30T06:28:31;14.35;;;11.23;;
57635;SDS011;43465;50.728;4.160;2022-08-30T06:30:57;18.77;;;11.02;;
57635;SDS011;43465;50.728;4.160;2022-08-30T06:33:23;18.08;;;11.05;;
57635;SDS011;43465;50.728;4.160;2022-08-30T06:35:49;17.17;;;11.02;;
57635;SDS011;43465;50.728;4.160;2022-08-30T06:38:14;23.00;;;11.75;;
57635;SDS011;43465;50.728;4.160;2022-08-30T06:40:40;13.80;;;11.15;;
57635;SDS011;43465;50.728;4.160;2022-08-30T06:43:06;17.15;;;10.80;;
57635;SDS011;43465;50.728;4.160;2022-08-30T06:45:33;16.42;;;11.55;;
57635;SDS011;43465;50.728;4.160;2022-08-30T06:47:59;17.73;;;11.63;;
57635;SDS011;43465;50.728;4.160;2022-08-30T06:50:26;15.85;;;11.43;;
57635;SDS011;43465;50.728;4.160;2022-08-30T06:52:52;18.13;;;11.77;;
57635;SDS011;43465;50.728;4.160;2022-08-30T06:55:18;16.40;;;11.13;;
57635;SDS011;43465;50.728;4.160;2022-08-30T06:57:44;16.40;;;11.20;;
57635;SDS011;43465;50.728;4.160;2022-08-30T07:00:10;19.05;;;11.65;;
57635;SDS011;43465;50.728;4.160;2022-08-30T07:02:39;20.80;;;11.65;;
57635;SDS011;43465;50.728;4.160;2022-08-30T07:05:05;17.67;;;11.07;;
57635;SDS011;43465;50.728;4.160;2022-08-30T07:07:32;14.70;;;11.15;;
57635;SDS011;43465;50.728;4.160;2022-08-30T07:10:00;14.88;;;11.68;;
57635;SDS011;43465;50.728;4.160;2022-08-30T07:12:29;14.43;;;11.40;;
57635;SDS011;43465;50.728;4.160;2022-08-30T07:14:55;15.07;;;11.43;;
57635;SDS011;43465;50.728;4.160;2022-08-30T07:17:20;16.02;;;11.27;;
57635;SDS011;43465;50.728;4.160;2022-08-30T07:20:05;15.95;;;11.43;;
57635;SDS011;43465;50.728;4.160;2022-08-30T07:22:31;14.10;;;10.27;;
57635;SDS011;43465;50.728;4.160;2022-08-30T07:24:57;15.32;;;10.20;;
57635;SDS011;43465;50.728;4.160;2022-08-30T07:27:23;15.70;;;10.38;;
57635;SDS011;43465;50.728;4.160;2022-08-30T07:29:49;15.10;;;10.38;;
57635;SDS011;43465;50.728;4.160;2022-08-30T07:32:15;13.07;;;9.55;;
57635;SDS011;43465;50.728;4.160;2022-08-30T07:34:40;15.45;;;10.57;;
57635;SDS011;43465;50.728;4.160;2022-08-30T07:37:06;19.10;;;9.55;;
57635;SDS011;43465;50.728;4.160;2022-08-30T07:39:32;13.07;;;9.10;;
57635;SDS011;43465;50.728;4.160;2022-08-30T07:41:57;14.00;;;9.27;;
57635;SDS011;43465;50.728;4.160;2022-08-30T07:44:23;12.57;;;9.20;;
57635;SDS011;43465;50.728;4.160;2022-08-30T07:46:49;14.43;;;8.80;;
57635;SDS011;43465;50.728;4.160;2022-08-30T07:49:15;9.43;;;7.88;;
57635;SDS011;43465;50.728;4.160;2022-08-30T07:51:41;11.60;;;7.82;;
57635;SDS011;43465;50.728;4.160;2022-08-30T07:54:07;14.27;;;8.70;;
57635;SDS011;43465;50.728;4.160;2022-08-30T07:56:33;10.85;;;8.70;;
57635;SDS011;43465;50.728;4.160;2022-08-30T07:58:59;15.35;;;8.55;;
57635;SDS011;43465;50.728;4.160;2022-08-30T08:01:24;10.73;;;7.15;;
57635;SDS011;43465;50.728;4.160;2022-08-30T08:03:50;9.85;;;7.63;;
57635;SDS011;43465;50.728;4.160;2022-08-30T08:06:17;12.82;;;7.90;;
57635;SDS011;43465;50.728;4.160;2022-08-30T08:08:48;12.05;;;7.57;;
57635;SDS011;43465;50.728;4.160;2022-08-30T08:11:18;10.77;;;7.63;;
57635;SDS011;43465;50.728;4.160;2022-08-30T08:13:47;15.60;;;7.10;;
57635;SDS011;43465;50.728;4.160;2022-08-30T08:16:14;12.13;;;7.18;;
57635;SDS011;43465;50.728;4.160;2022-08-30T08:18:40;10.98;;;7.38;;
57635;SDS011;43465;50.728;4.160;2022-08-30T08:21:06;14.25;;;7.55;;
57635;SDS011;43465;50.728;4.160;2022-08-30T08:23:31;11.45;;;7.20;;
57635;SDS011;43465;50.728;4.160;2022-08-30T08:25:57;15.65;;;6.72;;
57635;SDS011;43465;50.728;4.160;2022-08-30T08:28:23;10.38;;;6.97;;
57635;SDS011;43465;50.728;4.160;2022-08-30T08:30:49;11.02;;;6.95;;
57635;SDS011;43465;50.728;4.160;2022-08-30T08:33:16;14.70;;;6.97;;
57635;SDS011;43465;50.728;4.160;2022-08-30T08:35:43;10.52;;;6.75;;
57635;SDS011;43465;50.728;4.160;2022-08-30T08:38:09;10.93;;;7.35;;
57635;SDS011;43465;50.728;4.160;2022-08-30T08:43:23;15.60;;;6.65;;
57635;SDS011;43465;50.728;4.160;2022-08-30T08:48:45;13.55;;;6.50;;
57635;SDS011;43465;50.728;4.160;2022-08-30T08:51:15;13.00;;;6.25;;
57635;SDS011;43465;50.728;4.160;2022-08-30T08:54:14;9.65;;;5.97;;
57635;SDS011;43465;50.728;4.160;2022-08-30T08:56:45;9.95;;;5.88;;
57635;SDS011;43465;50.728;4.160;2022-08-30T08:59:11;9.13;;;5.97;;
57635;SDS011;43465;50.728;4.160;2022-08-30T09:01:40;13.05;;;5.95;;
57635;SDS011;43465;50.728;4.160;2022-08-30T09:04:11;8.80;;;5.43;;
57635;SDS011;43465;50.728;4.160;2022-08-30T09:09:36;6.30;;;4.95;;
57635;SDS011;43465;50.728;4.160;2022-08-30T09:12:04;11.43;;;5.43;;
57635;SDS011;43465;50.728;4.160;2022-08-30T09:14:33;10.10;;;4.55;;
57635;SDS011;43465;50.728;4.160;2022-08-30T09:17:11;9.48;;;4.55;;
57635;SDS011;43465;50.728;4.160;2022-08-30T09:19:42;10.48;;;4.78;;
57635;SDS011;43465;50.728;4.160;2022-08-30T09:25:07;11.10;;;5.20;;
57635;SDS011;43465;50.728;4.160;2022-08-30T09:27:45;10.00;;;5.20;;
57635;SDS011;43465;50.728;4.160;2022-08-30T09:35:39;11.38;;;4.57;;
57635;SDS011;43465;50.728;4.160;2022-08-30T09:38:29;10.63;;;4.47;;
57635;SDS011;43465;50.728;4.160;2022-08-30T09:40:57;7.28;;;3.95;;
57635;SDS011;43465;50.728;4.160;2022-08-30T09:43:31;9.95;;;4.40;;
57635;SDS011;43465;50.728;4.160;2022-08-30T09:53:38;8.00;;;4.78;;
57635;SDS011;43465;50.728;4.160;2022-08-30T09:56:16;7.13;;;3.83;;
57635;SDS011;43465;50.728;4.160;2022-08-30T09:59:05;8.55;;;4.38;;
57635;SDS011;43465;50.728;4.160;2022-08-30T10:02:00;9.27;;;4.38;;
57635;SDS011;43465;50.728;4.160;2022-08-30T10:04:43;8.68;;;4.28;;
57635;SDS011;43465;50.728;4.160;2022-08-30T10:12:23;8.32;;;4.30;;
57635;SDS011;43465;50.728;4.160;2022-08-30T10:15:04;8.48;;;4.00;;
57635;SDS011;43465;50.728;4.160;2022-08-30T10:23:31;7.22;;;4.10;;
57635;SDS011;43465;50.728;4.160;2022-08-30T10:26:09;9.13;;;4.32;;
57635;SDS011;43465;50.728;4.160;2022-08-30T10:28:49;8.27;;;4.43;;
57635;SDS011;43465;50.728;4.160;2022-08-30T10:33:49;9.15;;;4.38;;
57635;SDS011;43465;50.728;4.160;2022-08-30T10:36:21;9.00;;;4.00;;
57635;SDS011;43465;50.728;4.160;2022-08-30T10:38:54;9.55;;;4.18;;
57635;SDS011;43465;50.728;4.160;2022-08-30T10:44:14;7.65;;;4.82;;
57635;SDS011;43465;50.728;4.160;2022-08-30T10:49:20;6.97;;;3.80;;
57635;SDS011;43465;50.728;4.160;2022-08-30T10:54:40;9.85;;;4.70;;
57635;SDS011;43465;50.728;4.160;2022-08-30T10:57:10;7.07;;;4.15;;
57635;SDS011;43465;50.728;4.160;2022-08-30T10:59:36;8.48;;;4.20;;
57635;SDS011;43465;50.728;4.160;2022-08-30T11:08:41;5.85;;;3.85;;
57635;SDS011;43465;50.728;4.160;2022-08-30T11:10:43;14.27;;;3.95;;
57635;SDS011;43465;50.728;4.160;2022-08-30T11:13:11;9.13;;;3.80;;
57635;SDS011;43465;50.728;4.160;2022-08-30T11:15:52;8.60;;;3.88;;
57635;SDS011;43465;50.728;4.160;2022-08-30T11:18:28;10.43;;;3.65;;
57635;SDS011;43465;50.728;4.160;2022-08-30T11:21:15;7.35;;;3.70;;
57635;SDS011;43465;50.728;4.160;2022-08-30T11:24:05;7.38;;;4.50;;
57635;SDS011;43465;50.728;4.160;2022-08-30T11:31:52;6.95;;;3.97;;
57635;SDS011;43465;50.728;4.160;2022-08-30T11:37:10;7.20;;;4.93;;
57635;SDS011;43465;50.728;4.160;2022-08-30T11:42:47;12.25;;;4.70;;
57635;SDS011;43465;50.728;4.160;2022-08-30T12:00:42;6.40;;;3.22;;
57635;SDS011;43465;50.728;4.160;2022-08-30T12:08:55;8.73;;;4.40;;
57635;SDS011;43465;50.728;4.160;2022-08-30T12:10:59;7.60;;;3.72;;
57635;SDS011;43465;50.728;4.160;2022-08-30T12:18:41;5.40;;;3.20;;
57635;SDS011;43465;50.728;4.160;2022-08-30T12:23:48;6.07;;;3.60;;
57635;SDS011;43465;50.728;4.160;2022-08-30T12:28:49;7.70;;;4.00;;
57635;SDS011;43465;50.728;4.160;2022-08-30T12:31:18;7.80;;;3.70;;
57635;SDS011;43465;50.728;4.160;2022-08-30T12:33:53;10.23;;;3.92;;
57635;SDS011;43465;50.728;4.160;2022-08-30T12:36:38;9.15;;;4.30;;
57635;SDS011;43465;50.728;4.160;2022-08-30T12:39:23;6.85;;;3.67;;
57635;SDS011;43465;50.728;4.160;2022-08-30T12:41:51;6.63;;;3.50;;
57635;SDS011;43465;50.728;4.160;2022-08-30T12:44:25;7.05;;;3.70;;
57635;SDS011;43465;50.728;4.160;2022-08-30T12:46:59;9.23;;;3.40;;
57635;SDS011;43465;50.728;4.160;2022-08-30T12:49:29;6.97;;;3.75;;
57635;SDS011;43465;50.728;4.160;2022-08-30T12:54:48;6.55;;;3.63;;
57635;SDS011;43465;50.728;4.160;2022-08-30T13:00:07;8.43;;;4.15;;
57635;SDS011;43465;50.728;4.160;2022-08-30T13:02:42;4.95;;;3.63;;
57635;SDS011;43465;50.728;4.160;2022-08-30T13:10:47;7.28;;;3.60;;
57635;SDS011;43465;50.728;4.160;2022-08-30T13:13:43;9.75;;;3.30;;
57635;SDS011;43465;50.728;4.160;2022-08-30T13:16:57;10.75;;;3.85;;
57635;SDS011;43465;50.728;4.160;2022-08-30T13:19:30;7.60;;;3.60;;
57635;SDS011;43465;50.728;4.160;2022-08-30T13:22:00;7.38;;;3.20;;
57635;SDS011;43465;50.728;4.160;2022-08-30T13:24:27;10.40;;;3.55;;
57635;SDS011;43465;50.728;4.160;2022-08-30T13:26:54;10.23;;;4.15;;
57635;SDS011;43465;50.728;4.160;2022-08-30T13:29:26;9.32;;;3.30;;
57635;SDS011;43465;50.728;4.160;2022-08-30T13:31:52;10.38;;;3.95;;
57635;SDS011;43465;50.728;4.160;2022-08-30T13:34:19;9.18;;;3.90;;
57635;SDS011;43465;50.728;4.160;2022-08-30T13:36:48;8.40;;;3.85;;
57635;SDS011;43465;50.728;4.160;2022-08-30T13:39:16;11.93;;;4.25;;
57635;SDS011;43465;50.728;4.160;2022-08-30T13:41:42;12.25;;;3.80;;
57635;SDS011;43465;50.728;4.160;2022-08-30T13:44:08;8.73;;;3.75;;
57635;SDS011;43465;50.728;4.160;2022-08-30T13:46:34;6.00;;;3.80;;
57635;SDS011;43465;50.728;4.160;2022-08-30T13:49:02;6.85;;;3.70;;
57635;SDS011;43465;50.728;4.160;2022-08-30T13:51:29;8.73;;;3.60;;
57635;SDS011;43465;50.728;4.160;2022-08-30T13:53:55;8.60;;;3.83;;
57635;SDS011;43465;50.728;4.160;2022-08-30T13:56:22;10.73;;;3.33;;
57635;SDS011;43465;50.728;4.160;2022-08-30T13:58:55;7.38;;;3.45;;
57635;SDS011;43465;50.728;4.160;2022-08-30T14:01:21;6.68;;;4.07;;
57635;SDS011;43465;50.728;4.160;2022-08-30T14:03:47;8.85;;;3.75;;
57635;SDS011;43465;50.728;4.160;2022-08-30T14:06:13;7.38;;;3.40;;
57635;SDS011;43465;50.728;4.160;2022-08-30T14:08:38;8.18;;;3.55;;
57635;SDS011;43465;50.728;4.160;2022-08-30T14:11:04;12.32;;;3.45;;
57635;SDS011;43465;50.728;4.160;2022-08-30T14:13:30;5.40;;;3.20;;
57635;SDS011;43465;50.728;4.160;2022-08-30T14:15:56;6.95;;;3.50;;
57635;SDS011;43465;50.728;4.160;2022-08-30T14:18:25;8.60;;;3.60;;
57635;SDS011;43465;50.728;4.160;2022-08-30T14:20:50;7.47;;;3.72;;
57635;SDS011;43465;50.728;4.160;2022-08-30T14:23:16;5.93;;;3.17;;
57635;SDS011;43465;50.728;4.160;2022-08-30T14:25:41;7.30;;;3.45;;
57635;SDS011;43465;50.728;4.160;2022-08-30T14:28:07;6.80;;;3.63;;
57635;SDS011;43465;50.728;4.160;2022-08-30T14:30:33;8.48;;;4.00;;
57635;SDS011;43465;50.728;4.160;2022-08-30T14:32:59;6.88;;;3.47;;
57635;SDS011;43465;50.728;4.160;2022-08-30T14:35:24;11.27;;;3.63;;
57635;SDS011;43465;50.728;4.160;2022-08-30T14:37:50;6.28;;;3.22;;
57635;SDS011;43465;50.728;4.160;2022-08-30T14:40:16;7.13;;;3.78;;
57635;SDS011;43465;50.728;4.160;2022-08-30T14:42:42;9.43;;;3.65;;
57635;SDS011;43465;50.728;4.160;2022-08-30T14:45:08;7.15;;;3.75;;
57635;SDS011;43465;50.728;4.160;2022-08-30T14:47:34;10.55;;;3.33;;
57635;SDS011;43465;50.728;4.160;2022-08-30T14:50:00;10.23;;;3.90;;
57635;SDS011;43465;50.728;4.160;2022-08-30T14:52:26;8.30;;;4.07;;
57635;SDS011;43465;50.728;4.160;2022-08-30T14:54:53;7.43;;;3.30;;
57635;SDS011;43465;50.728;4.160;2022-08-30T14:57:19;7.85;;;3.10;;
57635;SDS011;43465;50.728;4.160;2022-08-30T14:59:44;8.52;;;3.50;;
57635;SDS011;43465;50.728;4.160;2022-08-30T15:02:10;8.48;;;3.20;;
57635;SDS011;43465;50.728;4.160;2022-08-30T15:04:36;8.55;;;3.20;;
57635;SDS011;43465;50.728;4.160;2022-08-30T15:07:01;7.47;;;4.00;;
57635;SDS011;43465;50.728;4.160;2022-08-30T15:09:27;9.02;;;3.03;;
57635;SDS011;43465;50.728;4.160;2022-08-30T15:11:55;7.70;;;3.55;;
57635;SDS011;43465;50.728;4.160;2022-08-30T15:14:28;5.95;;;3.40;;
57635;SDS011;43465;50.728;4.160;2022-08-30T15:16:55;4.90;;;3.25;;
57635;SDS011;43465;50.728;4.160;2022-08-30T15:19:22;6.63;;;2.92;;
57635;SDS011;43465;50.728;4.160;2022-08-30T15:21:48;5.32;;;3.17;;
57635;SDS011;43465;50.728;4.160;2022-08-30T15:24:19;7.45;;;2.97;;
57635;SDS011;43465;50.728;4.160;2022-08-30T15:26:46;6.88;;;2.70;;
57635;SDS011;43465;50.728;4.160;2022-08-30T15:29:14;9.18;;;3.25;;
57635;SDS011;43465;50.728;4.160;2022-08-30T15:31:41;6.43;;;3.25;;
57635;SDS011;43465;50.728;4.160;2022-08-30T15:34:08;6.95;;;3.42;;
57635;SDS011;43465;50.728;4.160;2022-08-30T15:36:37;11.15;;;3.40;;
57635;SDS011;43465;50.728;4.160;2022-08-30T15:39:04;7.00;;;3.45;;
57635;SDS011;43465;50.728;4.160;2022-08-30T15:41:31;5.85;;;3.05;;
57635;SDS011;43465;50.728;4.160;2022-08-30T15:43:57;6.22;;;3.22;;
57635;SDS011;43465;50.728;4.160;2022-08-30T15:46:33;11.77;;;3.38;;
57635;SDS011;43465;50.728;4.160;2022-08-30T15:49:04;6.03;;;2.90;;
57635;SDS011;43465;50.728;4.160;2022-08-30T15:51:50;5.97;;;2.97;;
57635;SDS011;43465;50.728;4.160;2022-08-30T15:54:17;6.10;;;2.90;;
57635;SDS011;43465;50.728;4.160;2022-08-30T15:56:44;6.55;;;3.10;;
57635;SDS011;43465;50.728;4.160;2022-08-30T15:59:11;4.88;;;3.13;;
57635;SDS011;43465;50.728;4.160;2022-08-30T16:01:39;8.23;;;3.05;;
57635;SDS011;43465;50.728;4.160;2022-08-30T16:04:06;5.63;;;3.05;;
57635;SDS011;43465;50.728;4.160;2022-08-30T16:06:33;7.05;;;3.13;;
57635;SDS011;43465;50.728;4.160;2022-08-30T16:09:01;8.00;;;2.85;;
57635;SDS011;43465;50.728;4.160;2022-08-30T16:11:29;3.97;;;2.83;;
57635;SDS011;43465;50.728;4.160;2022-08-30T16:13:55;4.18;;;2.85;;
57635;SDS011;43465;50.728;4.160;2022-08-30T16:16:21;6.40;;;3.10;;
57635;SDS011;43465;50.728;4.160;2022-08-30T16:18:47;6.70;;;2.75;;
57635;SDS011;43465;50.728;4.160;2022-08-30T16:21:18;5.60;;;2.38;;
57635;SDS011;43465;50.728;4.160;2022-08-30T16:23:46;2.40;;;2.10;;
57635;SDS011;43465;50.728;4.160;2022-08-30T16:26:13;5.50;;;2.30;;
57635;SDS011;43465;50.728;4.160;2022-08-30T16:28:42;9.27;;;2.50;;
57635;SDS011;43465;50.728;4.160;2022-08-30T16:31:08;4.72;;;2.15;;
57635;SDS011;43465;50.728;4.160;2022-08-30T16:33:35;8.60;;;2.10;;